Thousand Palms, CA (92276)

11:30 PM PDT on April 20, 2015 (GMT -0700)
DesertWeather com | Change Station
CLOSE
Current Station
Personal Weather Station
Location: Thousand Palms, CA
Elevation: 275 ft
Nearby Weather Stations

Elev 275 ft 33.82 °N, 116.40 °W | Updated 9 seconds ago

Clear
Clear
68.6 °F
Feels Like 68.6 °F
N
15.9
Wind Variable Wind from NNW
Gusts 23.0 mph

Today
High -- | Low -- °F
--% Chance of Precip.
Yesterday
High -- | Low -- °F
Precip. -- in
6:08 AM 7:20 PM
Waxing Crescent, 8% visible
Pressure 29.75 in
Visibility 10.0 miles
Clouds Clear
Dew Point 47 °F
Humidity 46%
Rainfall 0.00 in
Snow Depth Not available.
UV 0 out of 12
Pollen 8.90 out of 12
Ozone Good
PM10 Good
Flu Activity Sporadic
METAR KPSP 210553Z AUTO 32012KT 10SM CLR 22/07 A2975 RMK AO2 SLP073 T02220072 10333 20222 51018 TSNO

More Conditions Fewer Conditions

Pressure 29.75 in
Visibility 10.0 miles
Clouds Clear
Dew Point 47 °F
Humidity 46%
Rainfall 0.00 in
Snow Depth Not available.
UV 0 out of 12
Pollen 8.90 out of 12
Ozone Good
PM10 Good
Flu Activity Sporadic
METAR KPSP 210553Z AUTO 32012KT 10SM CLR 22/07 A2975 RMK AO2 SLP073 T02220072 10333 20222 51018 TSNO

More Conditions Fewer Conditions

10-Day Weather Forecast

Almanac

Astronomy

Apr. 20, 2015 Rise Set
Actual Time 6:08 AM PDT 7:20 PM PDT
Civil Twilight 5:43 AM PDT 7:46 PM PDT
Nautical Twilight 5:12 AM PDT 8:17 PM PDT
Astronomical Twilight 4:40 AM PDT 8:49 PM PDT
Moon 7:43 AM PDT (4/20) 9:42 PM PDT (4/20)
Length of Visible Light 14h 03m
Length of Day
13h 11m
Tomorrow will be 1m 56s longer.
Waxing Crescent, 8% of the Moon is Illuminated
Apr 21
Waxing Crescent
Apr 25
First Quarter
May 3
Full
May 11
Last Quarter
May 18
New

Community

WunderPhotos

Upload Photos

1,815,320 photos uploaded!

Nearby

Air Quality

  Air Quality AQ Index Pollutant
Yesterday Unhealthy for Sensitive Groups
OZONE
Yesterday Good
PM10
Current Good
OZONE
Current Good
PM10
Tuesday Moderate
OZONE
Tuesday Good
PM10
Tuesday Good
CO
Tuesday Good
NO2

Snow Depth

Station Depth Elevation
Virginia Lakes Ridge 0 in 9200 ft
Leavitt Lake 55 in 9400 ft
Leavitt Meadows 1 in 7200 ft
Sonora Pass 2 in 8800 ft
Summit Meadow 2 in 9122 ft

Earthquake Activity

City Distance Mag. Time & Date
Anza, California 27 miles 2.6 12:25 PM PDT
2015-04-20
Desert Hot Springs, California 14 miles 3.1 9:35 PM PDT
2015-04-18
Minimum magnitude displayed is 2.5.

Coastal Water Temperatures

Place Temperature
No Stations Reporting

Nearby Weather Stations